Time;durP1;ratioP1;P1;durP2;ratioP2;P2;SDS_P1;SDS_P2;PMS_P1;PMS_P2;Temp;Humidity;BMP_temperature;BMP_pressure;BME280_temperature;BME280_humidity;BME280_pressure;Samples;Min_cycle;Max_cycle;Signal;HPM_P1;HPM_P2
2022/10/25 00:02:22;;;;;;;45.67;30.00;;;358.90;2329.60;;;;;;5032554;28;20025;-77
2022/10/25 00:04:48;;;;;;;48.33;28.13;;;358.80;2329.60;;;;;;5032039;28;20026;-76
2022/10/25 00:07:14;;;;;;;42.75;25.90;;;358.80;2329.60;;;;;;5033844;28;20104;-76
2022/10/25 00:09:40;;;;;;;43.08;26.02;;;358.60;2329.60;;;;;;5048174;28;20453;-76
2022/10/25 00:12:06;;;;;;;39.45;25.00;;;358.80;2329.60;;;;;;5041408;28;20026;-78
2022/10/25 00:14:33;;;;;;;41.25;24.58;;;358.80;2329.60;;;;;;5032601;28;20068;-76
2022/10/25 00:16:58;;;;;;;42.45;26.70;;;358.70;2329.60;;;;;;5033649;28;20034;-78
2022/10/25 00:19:24;;;;;;;34.72;24.40;;;358.70;2329.60;;;;;;5031977;28;20030;-80
2022/10/25 00:21:50;;;;;;;39.00;25.92;;;358.70;2329.60;;;;;;5042972;28;20061;-76
2022/10/25 00:24:16;;;;;;;34.42;20.27;;;358.50;2329.60;;;;;;5015349;28;20063;-79
2022/10/25 00:26:42;;;;;;;35.30;20.23;;;358.40;2329.60;;;;;;5032282;28;20032;-77
2022/10/25 00:29:08;;;;;;;33.15;19.90;;;333.70;2329.60;;;;;;5015230;28;20125;-75
2022/10/25 00:31:36;;;;;;;37.55;20.83;;;333.70;2329.60;;;;;;5015605;28;20157;-79
2022/10/25 00:34:01;;;;;;;32.60;20.63;;;333.60;2329.60;;;;;;5015260;28;20025;-76
2022/10/25 00:36:27;;;;;;;33.22;19.70;;;333.30;2329.60;;;;;;5033090;28;20022;-76
2022/10/25 00:38:56;;;;;;;36.80;20.23;;;333.40;2329.60;;;;;;5015569;28;20034;-78
2022/10/25 00:41:25;;;;;;;37.75;20.45;;;333.40;2329.60;;;;;;5015207;28;20463;-76
2022/10/25 00:43:53;;;;;;;32.75;19.17;;;333.20;2329.60;;;;;;5032950;28;20030;-78
2022/10/25 00:46:25;;;;;;;30.33;19.38;;;333.20;2329.60;;;;;;5015537;28;20025;-78
2022/10/25 00:49:11;;;;;;;32.10;18.17;;;333.00;2329.60;;;;;;5015019;28;20061;-79
2022/10/25 00:51:58;;;;;;;29.70;17.10;;;333.10;2329.60;;;;;;5034840;28;20041;-78
2022/10/25 00:54:32;;;;;;;27.55;17.30;;;332.90;2329.60;;;;;;5051722;28;20047;-78
2022/10/25 00:57:04;;;;;;;28.52;17.73;;;333.10;2329.60;;;;;;5052646;28;20104;-79
2022/10/25 00:59:31;;;;;;;30.05;18.05;;;333.00;2329.60;;;;;;5052743;28;20029;-78
2022/10/25 01:01:57;;;;;;;24.55;17.23;;;333.00;2329.60;;;;;;5035051;28;20065;-77
2022/10/25 01:04:27;;;;;;;29.92;18.27;;;333.10;2329.60;;;;;;5035222;28;20051;-77
2022/10/25 01:06:54;;;;;;;33.30;18.40;;;333.00;2329.60;;;;;;5035258;28;20064;-78
2022/10/25 01:09:25;;;;;;;35.15;18.90;;;332.90;2329.60;;;;;;5034552;28;20045;-78
2022/10/25 01:11:52;;;;;;;33.58;18.40;;;308.10;2304.00;;;;;;5035093;28;20060;-79
2022/10/25 01:14:19;;;;;;;28.48;17.63;;;307.90;2304.00;;;;;;5055634;28;20029;-80
2022/10/25 01:17:00;;;;;;;32.15;17.58;;;308.10;2304.00;;;;;;5038428;28;20052;-78
2022/10/25 01:19:44;;;;;;;29.52;18.60;;;307.90;2304.00;;;;;;5038787;28;20095;-78
2022/10/25 01:22:31;;;;;;;30.33;18.38;;;308.10;2304.00;;;;;;5038261;28;20481;-79
2022/10/25 01:25:12;;;;;;;35.53;18.52;;;308.10;2304.00;;;;;;5038596;28;20050;-79
2022/10/25 01:28:11;;;;;;;31.13;17.80;;;307.90;2304.00;;;;;;5039146;28;20530;-79
2022/10/25 01:30:43;;;;;;;34.65;18.52;;;307.90;2304.00;;;;;;5045066;28;20029;-78
2022/10/25 01:33:31;;;;;;;31.70;19.00;;;308.00;2304.00;;;;;;5045135;28;20025;-78
2022/10/25 01:36:04;;;;;;;40.60;19.40;;;308.10;2304.00;;;;;;5041178;28;20036;-78
2022/10/25 01:38:34;;;;;;;;;;;307.80;2304.00;;;;;;5039146;28;20033;-77
2022/10/25 01:41:03;;;;;;;34.70;18.95;;;;;;;;;;5055140;28;19951;-79
2022/10/25 01:43:41;;;;;;;36.65;20.65;;;;;;;;;;5038053;28;20025;-78
2022/10/25 01:46:17;;;;;;;37.95;20.73;;;;;;;;;;5056575;28;20062;-80
2022/10/25 01:48:45;;;;;;;37.58;21.60;;;;;;;;;;5038083;28;20366;-78
2022/10/25 01:51:13;;;;;;;38.70;20.77;;;;;;;;;;5038043;28;20021;-78
2022/10/25 01:53:50;;;;;;;37.70;22.38;;;;;;;;;;5055646;28;20302;-78
2022/10/25 01:56:25;;;;;;;35.90;20.25;;;;;;;;;;5055814;28;20017;-77
2022/10/25 01:58:58;;;;;;;34.45;19.70;;;;;;;;;;5038103;28;20025;-80
2022/10/25 02:01:27;;;;;;;36.72;22.08;;;;;;;;;;5037751;28;20032;-79
2022/10/25 02:03:53;;;;;;;34.33;21.80;;;;;;;;;;5037667;28;20083;-77
2022/10/25 02:06:38;;;;;;;31.90;20.88;;;;;;;;;;5037827;28;20033;-77
2022/10/25 02:09:10;;;;;;;36.60;19.77;;;;;;;;;;5037538;28;20044;-77
2022/10/25 02:11:36;;;;;;;27.20;18.80;;;;;;;;;;5037472;28;20021;-77
2022/10/25 02:14:15;;;;;;;34.80;20.45;;;;;;;;;;5037643;28;20025;-77
2022/10/25 02:16:56;;;;;;;40.65;19.70;;;;;;;;;;5037572;28;20025;-79
2022/10/25 02:19:27;;;;;;;36.17;19.40;;;;;;;;;;5054814;28;20029;-78
2022/10/25 02:21:53;;;;;;;37.65;18.98;;;;;;;;;;5036824;28;20108;-78
2022/10/25 02:24:22;;;;;;;35.92;20.73;;;;;;;;;;5035948;28;20060;-79
2022/10/25 02:26:49;;;;;;;37.72;19.00;;;;;;;;;;5036323;28;20024;-76
2022/10/25 02:29:16;;;;;;;33.70;18.88;;;;;;;;;;5037301;28;20056;-80
2022/10/25 02:31:43;;;;;;;42.97;20.33;;;;;;;;;;5036947;28;20025;-77
2022/10/25 02:34:09;;;;;;;31.33;20.38;;;;;;;;;;5054772;28;20017;-78
2022/10/25 02:36:48;;;;;;;32.08;20.05;;;;;;;;;;5037300;28;20462;-79
2022/10/25 02:39:14;;;;;;;29.83;19.13;;;;;;;;;;5037348;28;20025;-78
2022/10/25 02:41:41;;;;;;;33.40;18.83;;;;;;;;;;5036945;28;20371;-80
2022/10/25 02:44:07;;;;;;;27.00;19.15;;;;;;;;;;5037053;28;20021;-80
2022/10/25 02:46:33;;;;;;;32.92;18.58;;;;;;;;;;5036753;28;20090;-77
2022/10/25 02:48:59;;;;;;;33.28;18.98;;;;;;;;;;5035759;28;20033;-81
2022/10/25 02:51:25;;;;;;;31.58;18.30;;;;;;;;;;5036039;28;20032;-79
2022/10/25 02:53:53;;;;;;;30.15;20.60;;;;;;;;;;5035881;28;20457;-81
2022/10/25 02:56:20;;;;;;;33.13;18.80;;;;;;;;;;5032098;28;20063;-79
2022/10/25 02:58:47;;;;;;;32.08;19.65;;;;;;;;;;5033547;28;20039;-80
2022/10/25 03:01:14;;;;;;;30.13;18.98;;;;;;;;;;5031817;28;20112;-78
2022/10/25 03:03:41;;;;;;;29.65;18.13;;;;;;;;;;5033280;28;20053;-78
2022/10/25 03:06:09;;;;;;;29.50;18.35;;;;;;;;;;5033326;28;20021;-82
2022/10/25 03:08:35;;;;;;;30.52;17.15;;;;;;;;;;5032923;28;20026;-80
2022/10/25 03:11:02;;;;;;;26.95;17.55;;;;;;;;;;5033238;28;20466;-81
2022/10/25 03:13:28;;;;;;;29.05;16.73;;;;;;;;;;5033111;28;20025;-82
2022/10/25 03:15:54;;;;;;;36.60;17.80;;;;;;;;;;5033005;28;20026;-79
2022/10/25 03:18:21;;;;;;;30.25;17.73;;;;;;;;;;5033180;28;20030;-79
2022/10/25 03:20:47;;;;;;;30.35;16.50;;;;;;;;;;5032716;28;20032;-79
2022/10/25 03:23:13;;;;;;;28.60;18.13;;;;;;;;;;5032949;28;20025;-77
2022/10/25 03:25:40;;;;;;;33.00;17.23;;;;;;;;;;5032982;28;20017;-77
2022/10/25 03:28:07;;;;;;;35.28;18.38;;;;;;;;;;5032682;28;20589;-77
2022/10/25 03:30:33;;;;;;;28.00;19.15;;;;;;;;;;5032736;28;20033;-79
2022/10/25 03:32:59;;;;;;;37.22;20.23;;;;;;;;;;5032848;28;20021;-80
2022/10/25 03:35:26;;;;;;;32.05;21.65;;;;;;;;;;5033448;28;20025;-80
2022/10/25 03:37:52;;;;;;;37.70;21.90;;;;;;;;;;5032483;28;20068;-77
2022/10/25 03:40:18;;;;;;;37.20;21.15;;;;;;;;;;5032759;28;20026;-81
2022/10/25 03:42:45;;;;;;;34.45;20.35;;;;;;;;;;5032406;28;20026;-79
2022/10/25 03:45:11;;;;;;;30.08;19.55;;;;;;;;;;5033541;28;20504;-81
2022/10/25 03:47:37;;;;;;;33.38;18.80;;;;;;;;;;5032641;28;20391;-80
2022/10/25 03:50:04;;;;;;;34.03;19.77;;;;;;;;;;5032339;28;20116;-79
2022/10/25 03:52:30;;;;;;;35.65;19.33;;;;;;;;;;5020381;28;20424;-79
2022/10/25 03:54:56;;;;;;;33.17;19.55;;;;;;;;;;5009468;28;20065;-80
2022/10/25 03:57:22;;;;;;;31.85;17.38;;;;;;;;;;4994423;28;20488;-81
2022/10/25 03:59:48;;;;;;;37.53;19.27;;;;;;;;;;5009504;28;20117;-79
2022/10/25 04:02:15;;;;;;;35.15;18.38;;;;;;;;;;4994429;28;20049;-79
2022/10/25 04:04:41;;;;;;;25.38;16.33;;;;;;;;;;4993802;28;20023;-80
2022/10/25 04:07:08;;;;;;;30.40;18.15;;;;;;;;;;5009338;28;20026;-79
2022/10/25 04:09:34;;;;;;;34.80;18.60;;;;;;;;;;5009426;28;20365;-82
2022/10/25 04:12:00;;;;;;;27.85;18.17;;;;;;;;;;5008708;28;20022;-80
2022/10/25 04:14:26;;;;;;;32.42;18.55;;;;;;;;;;5009266;28;20395;-79
2022/10/25 04:16:52;;;;;;;27.65;16.90;;;;;;;;;;5008915;28;20472;-80
2022/10/25 04:19:18;;;;;;;30.98;18.05;;;;;;;;;;5009429;28;20073;-81
2022/10/25 04:21:45;;;;;;;33.10;18.48;;;;;;;;;;5009732;28;20022;-81
2022/10/25 04:24:11;;;;;;;32.60;18.00;;;;;;;;;;5008834;28;20026;-79
2022/10/25 04:26:37;;;;;;;31.20;20.27;;;;;;;;;;5009251;28;20022;-78
2022/10/25 04:29:04;;;;;;;33.75;20.48;;;;;;;;;;5009164;28;20034;-80
2022/10/25 04:31:31;;;;;;;31.27;18.88;;;;;;;;;;5008824;28;20026;-82
2022/10/25 04:33:57;;;;;;;33.83;19.00;;;;;;;;;;5009182;28;20030;-80
2022/10/25 04:36:23;;;;;;;29.25;16.60;;;;;;;;;;5009128;28;20026;-79
2022/10/25 04:38:50;;;;;;;28.95;17.05;;;;;;;;;;5008811;28;20072;-78
2022/10/25 04:41:16;;;;;;;26.95;17.33;;;;;;;;;;5009023;28;20048;-78
2022/10/25 04:43:42;;;;;;;28.98;19.20;;;;;;;;;;5009044;28;20037;-81
2022/10/25 04:46:09;;;;;;;33.33;18.38;;;;;;;;;;5008683;28;20022;-79
2022/10/25 04:48:38;;;;;;;26.23;17.98;;;;;;;;;;5010871;28;20022;-81
2022/10/25 04:51:05;;;;;;;27.13;18.88;;;;;;;;;;5012911;28;20412;-80
2022/10/25 04:53:31;;;;;;;28.33;19.38;;;;;;;;;;5030764;28;20057;-82
2022/10/25 04:56:01;;;;;;;29.73;20.40;;;;;;;;;;5035942;28;20105;-80
2022/10/25 04:58:28;;;;;;;40.35;20.42;;;;;;;;;;5035697;28;20028;-79
2022/10/25 05:00:58;;;;;;;37.22;21.17;;;;;;;;;;5036444;28;20549;-79
2022/10/25 05:03:24;;;;;;;39.08;24.33;;;;;;;;;;5035587;28;20041;-79
2022/10/25 05:05:50;;;;;;;37.85;23.02;;;;;;;;;;5035424;28;20274;-79
2022/10/25 05:08:16;;;;;;;41.83;24.58;;;;;;;;;;5035610;28;20095;-81
2022/10/25 05:10:42;;;;;;;46.65;25.63;;;;;;;;;;5035541;28;20438;-80
2022/10/25 05:13:08;;;;;;;42.88;25.73;;;;;;;;;;5035582;28;20056;-79
2022/10/25 05:15:34;;;;;;;42.25;26.15;;;;;;;;;;5035361;28;20489;-80
2022/10/25 05:18:00;;;;;;;45.50;26.92;;;;;;;;;;5052069;28;20067;-78
2022/10/25 05:20:27;;;;;;;46.47;27.17;;;;;;;;;;5051581;28;20060;-81
2022/10/25 05:22:53;;;;;;;44.22;27.38;;;256.60;2252.80;;;;;;5051813;28;20021;-79
2022/10/25 05:25:21;;;;;;;50.55;29.10;;;;;;;;;;5035217;28;20079;-78
2022/10/25 05:27:47;;;;;;;38.28;23.67;;;;;;;;;;5051527;28;20425;-78
2022/10/25 05:30:13;;;;;;;43.55;26.65;;;;;;;;;;5051726;28;20033;-80
2022/10/25 05:32:41;;;;;;;45.47;28.40;;;256.50;2252.80;;;;;;5051843;28;20048;-79
2022/10/25 05:35:07;;;;;;;44.50;27.13;;;256.30;2252.80;;;;;;5034800;28;20140;-79
2022/10/25 05:37:33;;;;;;;44.67;29.85;;;;;;;;;;5035050;28;20045;-79
2022/10/25 05:39:59;;;;;;;43.25;28.35;;;;;;;;;;5051505;28;20040;-80
2022/10/25 05:42:26;;;;;;;38.20;26.42;;;;;;;;;;5051187;28;20017;-77
2022/10/25 05:44:52;;;;;;;41.83;25.13;;;281.90;2278.40;;;;;;5051453;28;20029;-78
2022/10/25 05:47:18;;;;;;;43.85;26.85;;;281.80;2278.40;;;;;;5034981;28;20033;-79
2022/10/25 05:49:44;;;;;;;47.30;28.20;;;281.90;2278.40;;;;;;5034619;28;20029;-78
2022/10/25 05:52:11;;;;;;;46.42;28.52;;;282.00;2278.40;;;;;;5035384;28;20060;-78
2022/10/25 05:54:37;;;;;;;42.63;28.17;;;281.90;2278.40;;;;;;5034694;28;20058;-79
2022/10/25 05:57:02;;;;;;;45.28;26.48;;;281.80;2278.40;;;;;;5036806;28;20021;-77
2022/10/25 05:59:28;;;;;;;42.45;26.15;;;281.70;2278.40;;;;;;5041281;28;20120;-78
2022/10/25 06:01:54;;;;;;;40.33;28.98;;;281.80;2278.40;;;;;;5041277;28;20025;-78
2022/10/25 06:04:20;;;;;;;43.10;29.80;;;281.70;2278.40;;;;;;5038690;28;20034;-80
2022/10/25 06:06:46;;;;;;;51.08;32.42;;;281.80;2278.40;;;;;;5034879;28;20032;-81
2022/10/25 06:09:13;;;;;;;48.13;28.65;;;281.90;2278.40;;;;;;5040928;28;20047;-77
2022/10/25 06:11:39;;;;;;;47.13;30.10;;;281.80;2278.40;;;;;;5061054;28;20033;-77
2022/10/25 06:14:05;;;;;;;44.67;27.67;;;282.00;2278.40;;;;;;5055795;28;20029;-78
2022/10/25 06:16:32;;;;;;;41.85;27.83;;;282.30;2278.40;;;;;;5063703;28;20025;-79
2022/10/25 06:18:57;;;;;;;37.20;24.38;;;282.30;2278.40;;;;;;5037466;28;20029;-80
2022/10/25 06:21:26;;;;;;;40.25;25.63;;;282.20;2278.40;;;;;;5036536;28;20112;-76
2022/10/25 06:23:53;;;;;;;37.65;20.38;;;282.40;2278.40;;;;;;5037152;28;20032;-79
2022/10/25 06:26:22;;;;;;;32.22;19.60;;;282.50;2278.40;;;;;;5036737;28;20028;-77
2022/10/25 06:28:51;;;;;;;34.35;18.70;;;307.30;2304.00;;;;;;5037406;28;20488;-78
2022/10/25 06:31:18;;;;;;;32.47;17.40;;;307.40;2304.00;;;;;;5037030;28;20025;-80
2022/10/25 06:33:44;;;;;;;31.77;18.52;;;307.50;2304.00;;;;;;5037299;28;20056;-78
2022/10/25 06:36:16;;;;;;;39.60;19.88;;;307.60;2304.00;;;;;;5037194;28;20032;-78
2022/10/25 06:38:43;;;;;;;31.48;17.23;;;307.60;2304.00;;;;;;5037023;28;20029;-80
2022/10/25 06:41:20;;;;;;;33.53;17.73;;;307.90;2304.00;;;;;;5037102;28;20025;-77
2022/10/25 06:43:46;;;;;;;27.67;18.27;;;307.90;2304.00;;;;;;5036682;28;20047;-79
2022/10/25 06:46:24;;;;;;;38.40;24.77;;;307.80;2304.00;;;;;;5036911;28;20466;-76
2022/10/25 06:48:52;;;;;;;63.25;39.47;;;308.00;2304.00;;;;;;5036897;28;20033;-77
2022/10/25 06:51:18;;;;;;;69.97;49.60;;;307.90;2304.00;;;;;;5016652;28;20397;-77
2022/10/25 06:53:44;;;;;;;88.40;53.72;;;308.10;2304.00;;;;;;5025977;28;20062;-78
2022/10/25 06:56:12;;;;;;;83.07;45.58;;;308.10;2304.00;;;;;;4994788;28;20102;-77
2022/10/25 06:58:38;;;;;;;59.58;37.70;;;308.10;2304.00;;;;;;4993975;28;20034;-78
2022/10/25 07:01:11;;;;;;;60.13;37.20;;;308.10;2304.00;;;;;;4994069;28;20488;-78
2022/10/25 07:03:37;;;;;;;59.90;37.45;;;308.10;2304.00;;;;;;4993954;28;20030;-76
2022/10/25 07:06:14;;;;;;;56.53;37.65;;;308.10;2304.00;;;;;;4993637;28;20027;-78
2022/10/25 07:08:43;;;;;;;60.63;41.75;;;332.80;2329.60;;;;;;4993833;28;20057;-77
2022/10/25 07:11:19;;;;;;;53.50;36.00;;;332.80;2329.60;;;;;;4994782;28;20081;-77
2022/10/25 07:13:45;;;;;;;39.35;26.55;;;333.00;2329.60;;;;;;4993560;28;20026;-77
2022/10/25 07:16:13;;;;;;;43.40;25.27;;;;;;;;;;4993748;28;20027;-77
2022/10/25 07:18:39;;;;;;;39.50;24.50;;;;;;;;;;5009886;28;20029;-77
2022/10/25 07:21:07;;;;;;;49.25;27.45;;;;;;;;;;4994961;28;20023;-77
2022/10/25 07:23:33;;;;;;;46.88;27.40;;;333.10;2329.60;;;;;;5010104;28;20046;-78
2022/10/25 07:25:59;;;;;;;42.67;27.27;;;333.10;2329.60;;;;;;4993466;28;20113;-77
2022/10/25 07:28:26;;;;;;;45.38;24.55;;;333.20;2329.60;;;;;;4993636;28;20022;-79
2022/10/25 07:30:52;;;;;;;42.33;25.55;;;;;;;;;;4993555;28;20472;-78
2022/10/25 07:33:19;;;;;;;42.65;24.27;;;;;;;;;;5009552;28;20019;-78
2022/10/25 07:35:45;;;;;;;38.90;22.70;;;;;;;;;;5009792;28;20113;-79
2022/10/25 07:38:12;;;;;;;37.85;22.35;;;;;;;;;;4994639;28;20526;-77
2022/10/25 07:40:38;;;;;;;39.40;23.40;;;;;;;;;;5009499;28;20030;-77
2022/10/25 07:43:04;;;;;;;38.85;22.08;;;;;;;;;;4994885;28;20503;-77
2022/10/25 07:45:30;;;;;;;36.92;22.33;;;;;;;;;;5009671;28;20116;-76
2022/10/25 07:47:56;;;;;;;39.38;23.25;;;;;;;;;;5009285;28;20027;-78
2022/10/25 07:50:22;;;;;;;40.75;22.80;;;;;;;;;;4994382;28;20480;-77
2022/10/25 07:52:49;;;;;;;48.25;24.10;;;;;;;;;;5009396;28;20058;-76
2022/10/25 07:55:15;;;;;;;43.85;24.38;;;;;;;;;;4994160;28;20054;-78
2022/10/25 07:57:41;;;;;;;38.33;22.85;;;;;;;;;;5009548;28;20033;-77
2022/10/25 08:00:08;;;;;;;44.30;25.65;;;;;;;;;;5009522;28;20468;-77
2022/10/25 08:02:35;;;;;;;41.38;23.20;;;;;;;;;;5009273;28;20023;-80
2022/10/25 08:05:01;;;;;;;43.03;23.25;;;;;;;;;;5009419;28;20030;-74
2022/10/25 08:07:27;;;;;;;42.10;23.23;;;;;;;;;;4994590;28;20022;-77
2022/10/25 08:09:53;;;;;;;47.50;27.23;;;;;;;;;;4993909;28;20117;-76
2022/10/25 08:12:20;;;;;;;41.75;22.77;;;;;;;;;;4994244;28;20105;-77
2022/10/25 08:14:46;;;;;;;43.05;22.80;;;;;;;;;;5009042;28;20045;-77
2022/10/25 08:17:12;;;;;;;44.40;20.95;;;;;;;;;;4993921;28;20079;-76
2022/10/25 08:19:38;;;;;;;31.27;20.55;;;;;;;;;;5009337;28;20507;-75
2022/10/25 08:22:04;;;;;;;38.00;19.85;;;;;;;;;;4995214;28;20050;-74
2022/10/25 08:24:31;;;;;;;31.80;20.27;;;;;;;;;;5013282;28;20598;-74
2022/10/25 08:26:57;;;;;;;35.03;18.52;;;;;;;;;;5013437;28;20022;-76
2022/10/25 08:29:23;;;;;;;37.22;19.63;;;;;;;;;;5012841;28;20039;-75
2022/10/25 08:31:49;;;;;;;28.80;18.70;;;;;;;;;;5013214;28;20029;-75
2022/10/25 08:34:15;;;;;;;33.88;18.88;;;;;;;;;;4997819;28;20026;-76
2022/10/25 08:36:41;;;;;;;43.65;20.02;;;;;;;;;;5012841;28;20065;-75
2022/10/25 08:39:07;;;;;;;37.70;19.65;;;;;;;;;;4997975;28;20383;-76
2022/10/25 08:41:43;;;;;;;35.33;19.15;;;;;;;;;;5012983;28;20113;-75
2022/10/25 08:44:09;;;;;;;35.40;17.67;;;;;;;;;;4997380;28;20036;-76
2022/10/25 08:46:55;;;;;;;34.28;18.45;;;;;;;;;;5012932;28;20114;-75
2022/10/25 08:49:40;;;;;;;34.70;16.70;;;;;;;;;;5012764;28;20480;-75
2022/10/25 08:52:11;;;;;;;31.13;16.58;;;;;;;;;;5014517;28;20065;-74
2022/10/25 08:54:39;;;;;;;32.85;17.65;;;;;;;;;;4997665;28;20031;-76
2022/10/25 08:57:17;;;;;;;42.38;15.85;;;;;;;;;;5012412;28;20357;-75
2022/10/25 08:59:46;;;;;;;26.33;13.02;;;;;;;;;;5015134;28;20057;-76
2022/10/25 09:02:17;;;;;;;29.02;14.35;;;;;;;;;;4997892;28;20388;-75
2022/10/25 09:04:43;;;;;;;26.35;13.00;;;;;;;;;;5011636;28;20382;-75
2022/10/25 09:07:19;;;;;;;23.58;12.38;;;;;;;;;;4999091;28;20427;-73
2022/10/25 09:09:51;;;;;;;34.50;12.45;;;;;;;;;;5007119;28;20034;-76
2022/10/25 09:12:17;;;;;;;31.02;13.55;;;;;;;;;;5008012;28;20026;-75
2022/10/25 09:14:49;;;;;;;27.85;13.40;;;;;;;;;;5000226;28;20026;-78
2022/10/25 09:17:38;;;;;;;24.95;12.73;;;;;;;;;;5032557;28;20018;-74
2022/10/25 09:20:06;;;;;;;27.08;11.10;;;;;;;;;;5015101;28;20038;-76
2022/10/25 09:22:35;;;;;;;35.20;12.13;;;;;;;;;;5009748;28;20029;-76
2022/10/25 09:25:12;;;;;;;30.00;12.07;;;;;;;;;;5013597;28;20041;-75
2022/10/25 09:27:50;;;;;;;32.95;13.40;;;;;;;;;;5002373;28;20021;-75
2022/10/25 09:30:16;;;;;;;24.55;10.98;;;;;;;;;;5009497;28;20030;-76
2022/10/25 09:32:45;;;;;;;30.02;11.35;;;;;;;;;;5014140;28;20045;-75
2022/10/25 09:35:22;;;;;;;24.50;10.00;;;;;;;;;;5011282;28;20032;-76
2022/10/25 09:37:50;;;;;;;27.60;10.52;;;;;;;;;;5014236;28;20105;-74
2022/10/25 09:40:25;;;;;;;26.35;10.10;;;;;;;;;;5015278;28;20018;-75
2022/10/25 09:43:06;;;;;;;26.77;10.35;;;;;;;;;;5014266;28;20050;-75
2022/10/25 09:45:39;;;;;;;29.00;12.25;;;;;;;;;;5014218;28;20022;-75
2022/10/25 09:48:05;;;;;;;33.45;15.55;;;;;;;;;;5015572;28;20025;-76
2022/10/25 09:50:34;;;;;;;25.67;12.35;;;;;;;;;;5014070;28;20372;-76
2022/10/25 09:53:11;;;;;;;25.90;9.85;;;512.60;2380.80;;;;;;5040048;28;20049;-76
2022/10/25 09:55:46;;;;;;;26.85;12.20;;;512.50;2380.80;;;;;;5036078;28;20493;-76
2022/10/25 09:58:17;;;;;;;26.70;9.15;;;512.50;2380.80;;;;;;5052835;28;20063;-76
2022/10/25 10:00:43;;;;;;;20.90;9.38;;;;;;;;;;5037044;28;20024;-76
2022/10/25 10:03:13;;;;;;;28.92;12.25;;;;;;;;;;5054483;28;20016;-76
2022/10/25 10:05:41;;;;;;;23.45;12.45;;;;;;;;;;5055957;28;20025;-76
2022/10/25 10:08:08;;;;;;;32.80;10.43;;;;;;;;;;5055163;28;20539;-75
2022/10/25 10:10:34;;;;;;;29.95;11.20;;;;;;;;;;5055229;28;20386;-75
2022/10/25 10:13:10;;;;;;;23.92;11.02;;;;;;;;;;5055537;28;20025;-76
2022/10/25 10:15:40;;;;;;;25.02;11.38;;;;;;;;;;5056146;28;20021;-75
2022/10/25 10:18:25;;;;;;;31.88;12.85;;;;;;;;;;5055719;28;20471;-77
2022/10/25 10:21:09;;;;;;;31.73;12.23;;;;;;;;;;5057893;28;20040;-79
2022/10/25 10:23:42;;;;;;;26.58;10.13;;;;;;;;;;5058028;28;20112;-75
2022/10/25 10:26:34;;;;;;;25.52;9.90;;;;;;;;;;5057233;28;20469;-76
2022/10/25 10:29:11;;;;;;;24.55;9.45;;;;;;;;;;5035794;28;20071;-77
2022/10/25 10:31:39;;;;;;;29.08;9.88;;;;;;;;;;5056640;28;20474;-77
2022/10/25 10:34:07;;;;;;;35.65;11.70;;;;;;;;;;5056146;28;20056;-76
2022/10/25 10:36:34;;;;;;;22.42;10.93;;;;;;;;;;5054035;28;20074;-77
2022/10/25 10:39:26;;;;;;;31.00;10.75;;;;;;;;;;5055086;28;20025;-77
2022/10/25 10:42:13;;;;;;;31.17;12.93;;;;;;;;;;5034381;28;20060;-76
2022/10/25 10:44:40;;;;;;;31.23;12.13;;;;;;;;;;5054998;28;20100;-75
2022/10/25 10:47:19;;;;;;;29.25;10.32;;;;;;;;;;5054179;28;20025;-74
2022/10/25 10:49:48;;;;;;;37.38;13.63;;;;;;;;;;5052746;28;20377;-78
2022/10/25 10:52:27;;;;;;;33.45;11.80;;;;;;;;;;5027099;28;20124;-76
2022/10/25 10:54:53;;;;;;;26.95;11.00;;;;;;;;;;5029326;28;20060;-76
2022/10/25 10:57:24;;;;;;;31.75;14.13;;;;;;;;;;5030208;28;20022;-76
2022/10/25 10:59:55;;;;;;;31.35;11.77;;;;;;;;;;5029956;28;20531;-76
2022/10/25 11:02:21;;;;;;;33.15;15.00;;;;;;;;;;5014628;28;20392;-76
2022/10/25 11:04:53;;;;;;;30.83;12.65;;;564.10;2432.00;;;;;;5014920;28;20178;-77
2022/10/25 11:07:33;;;;;;;23.30;10.90;;;;;;;;;;5013286;28;20066;-76
2022/10/25 11:10:22;;;;;;;29.13;10.57;;;;;;;;;;5029944;28;20104;-77
2022/10/25 11:13:07;;;;;;;29.90;11.57;;;;;;;;;;5011764;28;20042;-76
2022/10/25 11:15:38;;;;;;;25.10;9.98;;;;;;;;;;5029590;28;20048;-76
2022/10/25 11:18:04;;;;;;;25.40;10.35;;;;;;;;;;5030116;28;20088;-76
2022/10/25 11:20:33;;;;;;;28.48;10.10;;;;;;;;;;5029540;28;20099;-76
2022/10/25 11:23:13;;;;;;;19.92;10.32;;;;;;;;;;5014681;28;20467;-76
2022/10/25 11:26:05;;;;;;;29.60;11.35;;;;;;;;;;5014400;28;20033;-74
2022/10/25 11:28:31;;;;;;;24.60;11.68;;;;;;;;;;5013796;28;20065;-76
2022/10/25 11:30:57;;;;;;;31.98;13.73;;;;;;;;;;5029504;28;20072;-76
2022/10/25 11:33:26;;;;;;;29.95;11.35;;;;;;;;;;5029561;28;20475;-76
2022/10/25 11:36:00;;;;;;;44.90;11.70;;;;;;;;;;5012908;28;20445;-76
2022/10/25 11:38:26;;;;;;;25.60;11.82;;;;;;;;;;5029414;28;20018;-76
2022/10/25 11:55:34;;;;;;;28.75;12.45;;;;;;;;;;5071064;28;20388;-84
2022/10/25 11:58:06;;;;;;;26.00;11.65;;;;;;;;;;5053343;28;20036;-88
2022/10/25 12:00:36;;;;;;;47.35;22.42;;;;;;;;;;5053929;28;20408;-86
2022/10/25 12:03:28;;;;;;;34.15;14.63;;;;;;;;;;5053540;28;20060;-86
2022/10/25 12:06:11;;;;;;;35.70;16.25;;;;;;;;;;5056692;28;20135;-85
2022/10/25 12:08:43;;;;;;;30.25;13.88;;;;;;;;;;5053597;28;20029;-87
2022/10/25 12:11:09;;;;;;;;;;;;;;;;;;5054453;28;20024;-86
2022/10/25 12:13:38;;;;;;;36.40;14.02;;;;;;;;;;5053398;28;19926;-88
2022/10/25 12:16:09;;;;;;;29.38;13.57;;;;;;;;;;5053553;28;20025;-87
2022/10/25 12:18:37;;;;;;;33.58;14.35;;;;;;;;;;5053380;28;20428;-86
2022/10/25 12:21:04;;;;;;;30.27;16.77;;;;;;;;;;5053556;28;20021;-86
2022/10/25 12:23:41;;;;;;;35.63;16.80;;;564.10;2380.80;;;;;;5053461;28;20043;-85
2022/10/25 12:26:24;;;;;;;34.60;13.05;;;563.90;2355.20;;;;;;5053634;28;20116;-85
2022/10/25 12:28:50;;;;;;;30.73;13.60;;;;;;;;;;5071115;28;20036;-88
2022/10/25 12:31:19;;;;;;;31.83;11.43;;;;;;;;;;5053602;28;20021;-85
2022/10/25 12:34:07;;;;;;;29.33;11.30;;;;;;;;;;5053459;28;20044;-87
2022/10/25 12:36:44;;;;;;;26.95;10.82;;;;;;;;;;5053257;28;20021;-86
2022/10/25 12:39:13;;;;;;;27.67;10.30;;;;;;;;;;5054044;28;20083;-84
2022/10/25 12:41:43;;;;;;;29.70;11.18;;;;;;;;;;5032866;28;20107;-86
2022/10/25 12:44:15;;;;;;;31.13;11.75;;;;;;;;;;5032768;28;20029;-85
2022/10/25 12:46:44;;;;;;;38.33;15.10;;;;;;;;;;5033026;28;20037;-85
2022/10/25 12:49:20;;;;;;;36.45;21.23;;;;;;;;;;5032997;28;20033;-86
2022/10/25 12:52:04;;;;;;;41.95;25.40;;;;;;;;;;5050229;28;20504;-86
2022/10/25 12:54:49;;;;;;;35.38;16.10;;;;;;;;;;5049080;28;20067;-86
2022/10/25 12:57:34;;;;;;;24.77;14.38;;;;;;;;;;5038608;28;20036;-85
2022/10/25 13:00:00;;;;;;;38.42;15.52;;;;;;;;;;5039134;28;20028;-86
2022/10/25 13:02:32;;;;;;;37.00;16.35;;;;;;;;;;5039089;28;20017;-86
2022/10/25 13:05:08;;;;;;;34.17;14.77;;;;;;;;;;5039398;28;20029;-86
2022/10/25 13:07:35;;;;;;;32.30;15.57;;;;;;;;;;5039257;28;20041;-86
2022/10/25 13:10:06;;;;;;;46.55;20.15;;;;;;;;;;5039047;28;20445;-85
2022/10/25 13:12:32;;;;;;;34.03;18.92;;;;;;;;;;5039401;28;20028;-86
2022/10/25 13:14:59;;;;;;;34.17;13.60;;;;;;;;;;5039014;28;20063;-85
2022/10/25 13:17:25;;;;;;;30.15;15.07;;;;;;;;;;5038851;28;20025;-86
2022/10/25 13:20:14;;;;;;;30.23;13.57;;;;;;;;;;5039239;28;20118;-86
2022/10/25 13:22:41;;;;;;;25.63;13.20;;;;;;;;;;5038592;28;20679;-85
2022/10/25 13:25:07;;;;;;;28.98;13.50;;;;;;;;;;5056709;28;20048;-84
2022/10/25 13:27:35;;;;;;;29.67;12.68;;;;;;;;;;5038568;28;20465;-86
2022/10/25 13:30:02;;;;;;;32.15;14.23;;;;;;;;;;5038822;28;20023;-86
2022/10/25 13:32:32;;;;;;;30.48;14.32;;;;;;;;;;5039448;28;20071;-84
2022/10/25 13:35:01;;;;;;;34.47;12.85;;;;;;;;;;5040043;28;20032;-83
2022/10/25 13:37:37;;;;;;;31.13;13.23;;;;;;;;;;5039247;28;20017;-84
2022/10/25 13:40:24;;;;;;;22.35;11.15;;;;;;;;;;5043906;28;20044;-85
2022/10/25 13:42:57;;;;;;;24.15;11.48;;;;;;;;;;5043345;28;20036;-85
2022/10/25 13:45:31;;;;;;;20.10;11.55;;;;;;;;;;5045636;28;20021;-85
2022/10/25 13:47:57;;;;;;;27.35;11.60;;;;;;;;;;5043137;28;20025;-86
2022/10/25 13:50:29;;;;;;;26.08;13.68;;;;;;;;;;5038646;28;20032;-85
2022/10/25 13:52:55;;;;;;;26.15;12.30;;;;;;;;;;5038028;28;20106;-84
2022/10/25 13:55:22;;;;;;;26.75;13.02;;;;;;;;;;5037925;28;20049;-84
2022/10/25 13:57:49;;;;;;;34.72;14.85;;;;;;;;;;5037970;28;20024;-85
2022/10/25 14:00:18;;;;;;;25.88;13.07;;;;;;;;;;5037744;28;20024;-83
2022/10/25 14:03:03;;;;;;;31.35;15.10;;;;;;;;;;5037813;28;20017;-84
2022/10/25 14:05:47;;;;;;;25.50;14.50;;;;;;;;;;5037795;28;20021;-84
2022/10/25 14:08:20;;;;;;;29.85;16.60;;;;;;;;;;5036896;28;20491;-85